メインページ
METAR-TAF:

METAR-TAF

空港 :

アタテュルク国際空港

イスタンブル-アタテュルク, トルコ

緯度: 40-58N, 経度: 028-49E, 海抜: 48m

現時点の気象観測

当レポートは38分前の00:50(UTC)に作成
南西の風 5kt
気温 10°C
湿度 76%
気圧 1016 hPa
視程10km以上
1,500メートル以下は雲なし、積乱雲なし

METAR: LTBA 210050Z 23005KT CAVOK 10/06 Q1016 NOSIG RMK RWY17L 23006KT RWY05 22004KT RWY23 24006KT

時間: 04:28 (01:28 UTC)

予報

当レポートは2時間48分前の22:40(UTC)に作成
予報は21日の 00時(UTC)から 22日の 06時(UTC)まで有効
の風 6kt
視程10km以上
1,500メートル以下は雲なし、積乱雲なし
21日の 04時(UTC)から 21日の 07時(UTC)まで徐々に
の風 12kt
高度3500ftの雲は散在している
高度10000ftの千切れ雲あり
確率 30%
21日の 07時(UTC)から 21日の 11時(UTC)まで
弱いにわか雨
21日の 18時(UTC)から 21日の 21時(UTC)まで徐々に
視程10km以上
1,500メートル以下は雲なし、積乱雲なし

TAF: LTBA 202240Z 2100/2206 18006KT CAVOK BECMG 2104/2107 01012KT SCT035 BKN100 PROB30 2107/2111 -SHRA BECMG 2118/2121 CAVOK

4,000以上の空港の気象観測と天気予報(METAR報とTAF報)

利用可能な観測所は地図上に黄色い丸と赤い丸で示す。

丸の上にカーソルを重ねると観測所名を参照できる。

次にクリックすると気象観測と天気予報を参照できる。

マップの切り替え:黒色「×」印の緑ボタンをクリックして拡大、「-」印の緑ボタンをクリックして縮小、緑色の三角印をクリックして隣りの地図に切り替え


METAR-TAF: